Time;durP1;ratioP1;P1;durP2;ratioP2;P2;SDS_P1;SDS_P2;PMS_P1;PMS_P2;Temp;Humidity;BMP_temperature;BMP_pressure;BME280_temperature;BME280_humidity;BME280_pressure;Samples;Min_cycle;Max_cycle;Signal;HPM_P1;HPM_P2
2023/10/28 00:00:17;;;;;;;13.45;3.50;;;;;;;19.75;98.23;99353.06;5051189;28;20037;-66
2023/10/28 00:02:43;;;;;;;11.52;2.85;;;;;;;19.69;98.49;99346.22;5051149;28;20104;-67
2023/10/28 00:05:09;;;;;;;9.25;3.50;;;;;;;19.67;98.99;99355.84;5051277;28;20087;-67
2023/10/28 00:07:35;;;;;;;13.45;3.92;;;;;;;19.65;99.54;99355.00;5051258;28;20029;-67
2023/10/28 00:10:02;;;;;;;12.68;3.30;;;;;;;19.67;99.27;99361.09;5050887;28;20033;-71
2023/10/28 00:12:28;;;;;;;14.45;3.53;;;;;;;19.64;99.42;99355.88;5050942;28;20064;-68
2023/10/28 00:14:54;;;;;;;10.95;2.88;;;;;;;19.68;99.17;99347.09;5050485;28;20064;-67
2023/10/28 00:17:19;;;;;;;10.13;3.33;;;;;;;19.73;99.33;99358.34;5050877;28;20029;-68
2023/10/28 00:19:46;;;;;;;12.35;3.70;;;;;;;19.73;98.84;99358.34;5050949;28;20033;-66
2023/10/28 00:22:12;;;;;;;9.63;3.50;;;;;;;19.65;99.24;99357.63;5050665;28;20100;-67
2023/10/28 00:24:41;;;;;;;12.98;3.60;;;;;;;19.62;99.75;99362.91;5050363;28;20028;-68
2023/10/28 00:27:08;;;;;;;13.17;3.67;;;;;;;19.19;98.91;99283.41;5050661;28;20033;-68
2023/10/28 00:29:33;;;;;;;11.50;3.28;;;;;;;19.62;99.14;99368.16;5050771;28;20282;-69
2023/10/28 00:31:59;;;;;;;10.70;3.58;;;;;;;19.65;99.01;99368.09;5050552;28;20463;-67
2023/10/28 00:34:24;;;;;;;17.27;4.35;;;;;;;19.59;97.95;99370.81;5049477;28;20025;-68
2023/10/28 00:36:50;;;;;;;14.00;4.07;;;;;;;19.49;97.66;99372.72;5050526;28;20064;-68
2023/10/28 00:39:16;;;;;;;13.18;4.38;;;;;;;19.30;99.07;99372.19;5050365;28;20036;-67
2023/10/28 00:41:43;;;;;;;12.95;3.67;;;;;;;19.06;100.00;99390.00;5050654;28;20056;-67
2023/10/28 00:44:09;;;;;;;10.90;3.55;;;;;;;18.91;100.00;99381.47;5050616;28;20396;-68
2023/10/28 00:46:35;;;;;;;12.50;3.33;;;;;;;18.84;100.00;99386.78;5050510;28;20029;-67
2023/10/28 00:49:01;;;;;;;9.25;2.90;;;;;;;18.23;100.00;99327.50;5050074;28;20021;-68
2023/10/28 00:51:26;;;;;;;13.10;3.60;;;;;;;18.38;100.00;99383.06;5050037;28;20112;-68
2023/10/28 00:53:52;;;;;;;10.82;3.55;;;;;;;18.06;100.00;99332.94;5050135;28;20037;-68
2023/10/28 00:56:19;;;;;;;13.48;3.75;;;;;;;18.35;100.00;99386.56;5049963;28;20525;-67
2023/10/28 00:58:46;;;;;;;11.35;4.35;;;;;;;18.38;100.00;99402.22;5050377;28;20035;-68
2023/10/28 01:01:13;;;;;;;9.50;3.50;;;;;;;18.29;100.00;99407.53;5050250;28;20028;-66
2023/10/28 01:03:40;;;;;;;16.98;3.80;;;;;;;18.23;100.00;99407.63;5050474;28;20021;-67
2023/10/28 01:06:09;;;;;;;11.82;4.05;;;;;;;18.23;100.00;99418.94;5049743;28;20116;-68
2023/10/28 01:08:35;;;;;;;14.35;4.63;;;;;;;18.22;100.00;99416.34;5032246;28;20078;-68
2023/10/28 01:11:01;;;;;;;13.65;3.97;;;;;;;18.22;100.00;99408.53;5050185;28;20414;-67
2023/10/28 01:13:27;;;;;;;13.38;3.92;;;;;;;18.21;100.00;99409.41;5050084;28;20028;-67
2023/10/28 01:15:52;;;;;;;17.55;5.13;;;;;;;18.16;100.00;99404.22;5049623;28;20036;-66
2023/10/28 01:18:18;;;;;;;9.23;3.88;;;;;;;18.13;100.00;99406.88;5050156;28;20036;-67
2023/10/28 01:20:44;;;;;;;13.82;3.80;;;;;;;18.11;100.00;99408.63;5049999;28;20033;-68
2023/10/28 01:23:10;;;;;;;11.40;4.10;;;;;;;18.09;100.00;99408.66;5050038;28;20028;-66
2023/10/28 01:25:35;;;;;;;15.48;4.03;;;;;;;18.10;100.00;99401.66;5032058;28;20029;-67
2023/10/28 01:28:01;;;;;;;12.63;5.50;;;;;;;18.15;100.00;99406.84;5050384;28;20037;-67
2023/10/28 01:30:27;;;;;;;9.80;4.40;;;;;;;18.15;100.00;99399.03;5050135;28;20029;-68
2023/10/28 01:32:52;;;;;;;22.17;5.03;;;;;;;18.15;100.00;99404.25;5049571;28;20018;-67
2023/10/28 01:35:18;;;;;;;10.43;4.38;;;;;;;18.32;100.00;99417.09;5030738;28;20475;-67
2023/10/28 01:37:43;;;;;;;14.63;4.35;;;;;;;18.02;100.00;99362.59;5049819;28;20111;-67
2023/10/28 01:40:13;;;;;;;14.55;4.65;;;;;;;18.25;100.00;99403.25;5049749;28;20029;-68
2023/10/28 01:42:40;;;;;;;13.98;4.70;;;;;;;18.26;100.00;99411.06;5049756;28;20090;-67
2023/10/28 01:45:07;;;;;;;18.08;4.93;;;;;;;18.24;100.00;99404.13;5049138;28;20049;-69
2023/10/28 01:47:33;;;;;;;14.98;4.68;;;;;;;18.08;100.00;99372.09;5014380;28;20658;-67
2023/10/28 01:49:59;;;;;;;23.92;5.18;;;;;;;18.10;100.00;99391.22;5033095;28;20041;-67
2023/10/28 01:52:25;;;;;;;19.38;4.90;;;;;;;18.13;100.00;99395.53;5053271;28;20036;-69
2023/10/28 01:54:51;;;;;;;15.15;4.35;;;;;;;18.09;100.00;99402.56;5053585;28;20067;-70
2023/10/28 01:57:17;;;;;;;12.27;4.70;;;;;;;17.85;100.00;99408.88;5053512;28;20048;-67
2023/10/28 01:59:44;;;;;;;16.63;4.95;;;;;;;17.81;100.00;99414.97;5053750;28;20025;-66
2023/10/28 02:02:10;;;;;;;13.52;4.13;;;;;;;17.88;100.00;99417.53;5053428;28;20033;-66
2023/10/28 02:04:36;;;;;;;18.27;4.78;;;;;;;17.82;100.00;99415.00;5052878;28;20025;-66
2023/10/28 02:07:04;;;;;;;21.35;4.43;;;;;;;17.86;100.00;99418.44;5053530;28;20119;-67
2023/10/28 02:09:33;;;;;;;15.68;4.53;;;;;;;17.90;100.00;99417.53;5053270;28;20083;-66
2023/10/28 02:12:02;;;;;;;14.97;5.47;;;;;;;17.91;100.00;99422.72;5050413;28;20037;-67
2023/10/28 02:14:28;;;;;;;8.15;3.63;;;;;;;17.79;100.00;99400.22;5052927;28;20033;-67
2023/10/28 02:16:55;;;;;;;12.18;3.90;;;;;;;17.90;100.00;99414.91;5052611;28;20036;-69
2023/10/28 02:19:21;;;;;;;12.10;4.43;;;;;;;17.92;100.00;99414.00;5053043;28;20025;-67
2023/10/28 02:21:47;;;;;;;15.07;4.35;;;;;;;17.92;100.00;99423.59;5053098;28;20032;-67
2023/10/28 02:24:12;;;;;;;17.15;4.28;;;;;;;17.91;100.00;99427.09;5052979;28;20036;-68
2023/10/28 02:26:38;;;;;;;11.80;4.32;;;;;;;17.84;100.00;99433.25;5052859;28;20028;-67
2023/10/28 02:29:03;;;;;;;20.05;5.65;;;;;;;17.81;100.00;99426.31;5053006;28;20025;-68
2023/10/28 02:31:29;;;;;;;13.90;5.70;;;;;;;17.42;100.00;99352.72;5052757;28;20021;-67
2023/10/28 02:33:55;;;;;;;16.05;4.85;;;;;;;17.80;100.00;99416.75;5052510;28;20061;-68
2023/10/28 02:36:20;;;;;;;17.85;5.10;;;;;;;17.66;100.00;99421.22;5052806;28;20040;-66
2023/10/28 02:38:46;;;;;;;14.55;4.22;;;;;;;17.53;100.00;99421.31;5052786;28;20047;-67
2023/10/28 02:41:14;;;;;;;16.80;6.38;;;;;;;17.26;100.00;99418.06;5052549;28;20029;-71
2023/10/28 02:43:40;;;;;;;10.75;4.55;;;;;;;16.89;100.00;99420.03;5052932;28;20028;-66
2023/10/28 02:46:06;;;;;;;14.10;4.15;;;;;;;16.78;100.00;99425.28;5033616;28;20135;-70
2023/10/28 02:48:31;;;;;;;10.52;4.10;;;;;;;16.74;100.00;99434.00;5050218;28;20102;-67
2023/10/28 02:51:04;;;;;;;9.77;4.50;;;;;;;16.31;100.00;99364.69;5052833;28;20025;-67
2023/10/28 02:53:30;;;;;;;11.27;4.43;;;;;;;16.84;100.00;99447.88;5052216;28;20460;-66
2023/10/28 02:55:55;;;;;;;11.57;4.18;;;;;;;16.87;100.00;99446.06;5052591;28;20053;-66
2023/10/28 02:58:21;;;;;;;10.75;4.80;;;;;;;16.89;100.00;99436.53;5052535;28;20032;-67
2023/10/28 03:00:47;;;;;;;12.77;4.03;;;;;;;16.49;100.00;99375.03;5050771;28;20108;-68
2023/10/28 03:03:13;;;;;;;13.07;4.55;;;;;;;16.82;100.00;99437.41;5052435;28;20079;-67
2023/10/28 03:05:40;;;;;;;13.63;5.03;;;;;;;16.95;100.00;99444.34;5052158;28;20491;-66
2023/10/28 03:08:06;;;;;;;15.82;5.13;;;;;;;17.04;100.00;99453.00;5052184;28;20064;-68
2023/10/28 03:10:31;;;;;;;13.45;4.95;;;;;;;16.69;100.00;99375.84;5050267;28;20065;-67
2023/10/28 03:12:57;;;;;;;12.30;4.03;;;;;;;17.23;100.00;99456.34;5051698;28;20116;-67
2023/10/28 03:15:24;;;;;;;9.68;4.10;;;;;;;16.82;100.00;99380.06;5052096;28;20028;-66
2023/10/28 03:17:50;;;;;;;15.43;4.82;;;;;;;17.16;100.00;99458.13;5051782;28;20052;-67
2023/10/28 03:20:19;;;;;;;15.63;5.70;;;;;;;17.25;100.00;99473.72;5051610;28;20060;-67
2023/10/28 03:23:02;;;;;;;12.07;4.82;;;;;;;17.25;100.00;99459.81;5029210;28;20046;-67
2023/10/28 03:25:28;;;;;;;16.08;4.60;;;;;;;17.27;100.00;99461.53;5029196;28;20037;-66
2023/10/28 03:27:54;;;;;;;14.10;4.38;;;;;;;17.15;100.00;99453.78;5029143;28;20041;-67
2023/10/28 03:30:19;;;;;;;11.57;5.32;;;;;;;16.73;100.00;99396.63;5029201;28;20115;-66
2023/10/28 03:32:45;;;;;;;9.45;4.00;;;;;;;17.10;100.00;99469.47;5029209;28;20053;-67
2023/10/28 03:35:10;;;;;;;12.50;5.25;;;;;;;17.09;100.00;99478.16;5029111;28;20030;-68
2023/10/28 03:37:37;;;;;;;11.45;4.93;;;;;;;17.22;100.00;99468.53;5028488;28;20460;-68
2023/10/28 03:40:04;;;;;;;14.57;4.72;;;;;;;17.27;100.00;99465.88;5028616;28;20053;-67
2023/10/28 03:42:30;;;;;;;12.95;4.85;;;;;;;17.34;100.00;99471.94;5028695;28;20049;-67
2023/10/28 03:44:56;;;;;;;12.18;4.78;;;;;;;17.41;100.00;99476.25;5029211;28;20033;-67
2023/10/28 03:47:21;;;;;;;13.60;4.75;;;;;;;17.41;100.00;99463.19;5028515;28;20209;-67
2023/10/28 03:49:47;;;;;;;12.52;4.28;;;;;;;17.05;100.00;99407.78;5028924;28;20061;-66
2023/10/28 03:52:13;;;;;;;11.23;5.05;;;;;;;17.20;100.00;99428.53;5028911;28;20474;-67
2023/10/28 03:54:39;;;;;;;13.40;4.13;;;;;;;16.86;100.00;99381.81;4995000;28;20076;-67
2023/10/28 03:57:05;;;;;;;14.35;4.70;;;;;;;17.45;100.00;99476.19;5051259;28;20069;-67
2023/10/28 03:59:32;;;;;;;16.38;4.88;;;;;;;17.51;100.00;99475.28;5051411;28;20021;-68
2023/10/28 04:01:58;;;;;;;15.68;4.75;;;;;;;16.85;100.00;99373.97;5050968;28;20063;-67
2023/10/28 04:04:24;;;;;;;12.15;4.60;;;;;;;16.77;100.00;99353.19;5033914;28;20041;-68
2023/10/28 04:06:50;;;;;;;13.38;4.93;;;;;;;17.53;100.00;99489.16;5030959;28;20396;-68
2023/10/28 04:09:16;;;;;;;12.55;4.60;;;;;;;17.46;100.00;99495.34;5031729;28;20480;-66
2023/10/28 04:11:41;;;;;;;10.98;4.88;;;;;;;17.06;100.00;99440.78;5050419;28;20028;-68
2023/10/28 04:14:07;;;;;;;19.10;6.05;;;;;;;17.40;100.00;99497.97;5050180;28;20032;-72
2023/10/28 04:16:32;;;;;;;18.10;5.88;;;;;;;17.01;100.00;99432.13;5050808;28;20033;-68
2023/10/28 04:18:58;;;;;;;11.38;4.60;;;;;;;17.35;100.00;99498.00;5051073;28;20060;-67
2023/10/28 04:21:23;;;;;;;17.15;5.85;;;;;;;17.23;100.00;99505.91;5050801;28;20055;-68
2023/10/28 04:23:49;;;;;;;13.40;5.35;;;;;;;17.01;100.00;99492.09;5050053;28;20514;-66
2023/10/28 04:26:14;;;;;;;15.75;5.40;;;;;;;17.11;100.00;99505.09;5050210;28;20116;-71
2023/10/28 04:28:40;;;;;;;15.32;5.07;;;;;;;17.10;100.00;99508.56;5050209;28;20033;-67
2023/10/28 04:31:07;;;;;;;11.73;5.00;;;;;;;17.15;100.00;99519.00;5050553;28;20122;-68
2023/10/28 04:33:32;;;;;;;15.98;5.35;;;;;;;16.97;100.00;99515.59;5050578;28;20025;-67
2023/10/28 04:35:58;;;;;;;15.35;4.93;;;;;;;16.89;100.00;99521.69;5050586;28;20040;-67
2023/10/28 04:38:24;;;;;;;18.88;6.32;;;;;;;16.86;100.00;99524.28;5033008;28;20033;-69
2023/10/28 04:40:50;;;;;;;15.10;4.95;;;;;;;16.91;100.00;99531.28;5050437;28;20474;-69
2023/10/28 04:43:15;;;;;;;16.05;5.18;;;;;;;16.52;100.00;99473.16;5015172;28;20043;-69
2023/10/28 04:45:44;;;;;;;17.48;5.00;;;;;;;16.61;100.00;99535.69;5050341;28;20040;-68
2023/10/28 04:48:10;;;;;;;18.57;5.20;;;;;;;16.08;100.00;99456.78;5050272;28;20477;-68
2023/10/28 04:50:36;;;;;;;17.30;5.88;;;;;;;15.64;100.00;99387.44;5050418;28;20028;-68
2023/10/28 04:53:02;;;;;;;18.42;5.88;;;;;;;15.94;100.00;99449.00;5050174;28;20394;-67
2023/10/28 04:55:27;;;;;;;18.70;5.85;;;;;;;16.21;100.00;99514.91;5048705;28;20053;-70
2023/10/28 04:57:53;;;;;;;24.77;5.93;;;;;;;16.28;100.00;99532.25;5050455;28;20078;-69
2023/10/28 05:00:19;;;;;;;18.42;5.18;;;;;;;16.24;100.00;99529.69;5050090;28;20037;-69
2023/10/28 05:02:45;;;;;;;22.77;5.78;;;;;;;16.27;100.00;99525.31;5050236;28;20476;-69
2023/10/28 05:05:11;;;;;;;13.73;5.07;;;;;;;16.40;100.00;99549.63;5050031;28;20032;-69
2023/10/28 05:07:37;;;;;;;36.03;5.38;;;;;;;16.34;100.00;99557.44;5049130;28;20033;-69
2023/10/28 05:10:03;;;;;;;14.27;4.35;;;;;;;16.28;100.00;99560.06;5049682;28;20029;-70
2023/10/28 05:12:29;;;;;;;14.63;5.30;;;;;;;16.34;100.00;99560.91;5050421;28;20032;-69
2023/10/28 05:14:54;;;;;;;18.83;5.38;;;;;;;16.40;100.00;99560.06;5049828;28;20104;-69
2023/10/28 05:17:20;;;;;;;14.73;5.63;;;;;;;16.11;100.00;99502.78;5050083;28;20083;-69
2023/10/28 05:19:46;;;;;;;18.27;5.45;;;;;;;16.55;100.00;99572.19;5049961;28;20071;-69
2023/10/28 05:22:12;;;;;;;14.05;5.13;;;;;;;15.66;100.00;99424.72;5050158;28;20453;-69
2023/10/28 05:24:37;;;;;;;17.58;6.13;;;;;;;16.58;100.00;99574.75;5052159;28;20017;-70
2023/10/28 05:27:03;;;;;;;14.52;5.82;;;;;;;16.65;100.00;99575.63;5054278;28;20079;-68
2023/10/28 05:29:29;;;;;;;20.83;5.95;;;;;;;16.57;100.00;99573.03;5054121;28;20036;-69
2023/10/28 05:31:56;;;;;;;16.20;4.80;;;;;;;16.44;100.00;99587.81;5054217;28;20036;-69
2023/10/28 05:34:25;;;;;;;14.10;4.43;;;;;;;16.26;100.00;99604.34;5053861;28;20035;-70
2023/10/28 05:36:50;;;;;;;10.32;4.93;;;;;;;16.09;100.00;99600.88;5054032;28;20032;-69
2023/10/28 05:39:16;;;;;;;15.23;4.95;;;;;;;15.94;100.00;99609.53;5053698;28;20025;-70
2023/10/28 05:41:42;;;;;;;14.35;5.70;;;;;;;15.86;100.00;99614.72;5054214;28;20029;-70
2023/10/28 05:44:07;;;;;;;16.58;6.68;;;;;;;15.92;100.00;99627.75;5053895;28;20429;-71
2023/10/28 05:46:33;;;;;;;15.63;5.90;;;;;;;15.71;100.00;99601.66;5053963;28;20543;-69
2023/10/28 05:49:00;;;;;;;14.35;5.72;;;;;;;15.94;100.00;99639.03;5053994;28;20395;-70
2023/10/28 05:51:25;;;;;;;14.65;5.70;;;;;;;15.87;100.00;99629.47;5053717;28;20498;-69
2023/10/28 05:53:51;;;;;;;17.50;5.70;;;;;;;16.10;100.00;99645.13;5053642;28;20033;-69
2023/10/28 05:56:17;;;;;;;20.95;5.97;;;;;;;16.22;100.00;99654.69;5035513;28;20111;-69
2023/10/28 05:58:43;;;;;;;16.92;5.60;;;;;;;16.37;100.00;99664.22;5053329;28;20112;-69
2023/10/28 06:01:09;;;;;;;12.63;5.15;;;;;;;16.48;100.00;99653.81;5053561;28;20119;-69
2023/10/28 06:03:37;;;;;;;14.27;5.35;;;;;;;16.61;100.00;99670.31;5053575;28;20033;-69
2023/10/28 06:06:03;;;;;;;16.38;6.30;;;;;;;16.77;100.00;99664.22;5053185;28;20108;-70
2023/10/28 06:08:29;;;;;;;13.85;5.00;;;;;;;16.91;100.00;99666.84;5053424;28;20120;-70
2023/10/28 06:10:56;;;;;;;16.45;6.22;;;;;;;17.09;100.00;99665.06;5053473;28;20028;-69
2023/10/28 06:13:22;;;;;;;15.38;5.00;;;;;;;17.27;100.00;99667.63;5053049;28;20033;-70
2023/10/28 06:15:47;;;;;;;12.25;4.88;;;;;;;17.54;100.00;99667.50;5053343;28;20081;-69
2023/10/28 06:18:13;;;;;;;14.43;5.78;;;;;;;17.74;100.00;99670.03;5053017;28;20121;-72
2023/10/28 06:20:39;;;;;;;15.77;5.15;;;;;;;17.94;100.00;99665.59;5053230;28;20029;-69
2023/10/28 06:23:06;;;;;;;14.48;5.38;;;;;;;18.03;100.00;99663.78;5051030;28;20037;-73
2023/10/28 06:25:34;;;;;;;32.70;5.68;;;;;;;18.23;100.00;99695.00;5053053;28;20098;-69
2023/10/28 06:28:02;;;;;;;12.85;5.00;;;;;;;18.25;100.00;99699.31;5053102;28;20035;-69
2023/10/28 06:30:27;;;;;;;16.52;5.85;;;;;;;18.31;100.00;99695.81;5052878;28;20071;-70
2023/10/28 06:32:53;;;;;;;16.33;5.20;;;;;;;18.27;100.00;99692.34;5052949;28;20079;-70
2023/10/28 06:35:18;;;;;;;14.25;4.97;;;;;;;18.41;100.00;99709.69;5052427;28;20380;-69
2023/10/28 06:37:44;;;;;;;14.43;4.78;;;;;;;18.52;100.00;99702.63;5052873;28;20043;-69
2023/10/28 06:40:10;;;;;;;11.32;4.75;;;;;;;18.73;99.79;99721.63;5052816;28;20029;-69
2023/10/28 06:42:37;;;;;;;12.63;5.50;;;;;;;18.87;99.17;99726.75;5052932;28;20025;-69
2023/10/28 06:45:03;;;;;;;17.88;5.40;;;;;;;19.12;97.89;99740.47;5052511;28;20035;-72
2023/10/28 06:47:29;;;;;;;17.00;5.07;;;;;;;19.30;97.04;99741.16;5052418;28;20502;-70
2023/10/28 06:49:55;;;;;;;11.57;5.80;;;;;;;19.45;96.26;99737.53;5052187;28;20036;-70
2023/10/28 06:52:22;;;;;;;10.77;5.22;;;;;;;19.62;94.69;99737.34;5052348;28;20024;-69
2023/10/28 06:54:47;;;;;;;12.13;5.32;;;;;;;19.82;93.83;99729.22;5052510;28;20484;-69
2023/10/28 06:57:13;;;;;;;16.10;5.25;;;;;;;19.66;92.87;99686.66;5052587;28;20053;-69
2023/10/28 06:59:38;;;;;;;12.35;5.32;;;;;;;20.01;92.84;99743.84;5052291;28;20104;-70
2023/10/28 07:02:04;;;;;;;100.15;9.75;;;;;;;20.05;92.19;99726.34;5052604;28;20041;-70
2023/10/28 07:04:31;;;;;;;47.17;6.22;;;;;;;20.13;92.04;99740.19;5051993;28;20025;-69
2023/10/28 07:06:56;;;;;;;19.35;5.20;;;;;;;20.20;92.70;99746.22;5052381;28;20024;-70
2023/10/28 07:09:21;;;;;;;27.65;5.93;;;;;;;20.23;92.17;99735.69;5052022;28;20111;-69
2023/10/28 07:11:47;;;;;;;52.28;7.07;;;;;;;20.36;91.93;99755.59;5052249;28;20025;-70
2023/10/28 07:14:13;;;;;;;24.35;6.50;;;;;;;20.44;92.00;99744.97;5052131;28;20029;-69
2023/10/28 07:16:41;;;;;;;15.32;4.35;;;;;;;20.51;92.09;99740.50;5052025;28;20597;-69
2023/10/28 07:19:09;;;;;;;16.77;4.10;;;;;;;20.60;92.52;99743.00;5017169;28;20045;-74
2023/10/28 07:21:36;;;;;;;26.73;8.43;;;;;;;20.57;92.78;99737.78;5052126;28;20032;-68
2023/10/28 07:24:02;;;;;;;14.82;4.57;;;;;;;20.73;92.20;99743.66;5051662;28;20039;-70
2023/10/28 07:26:29;;;;;;;15.85;4.63;;;;;;;20.85;92.09;99750.50;5051771;28;20029;-70
2023/10/28 07:28:54;;;;;;;20.27;4.18;;;;;;;20.96;91.34;99755.53;5051873;28;20036;-70
2023/10/28 07:31:20;;;;;;;22.05;4.28;;;;;;;20.95;91.35;99738.09;5052110;28;20029;-70
2023/10/28 07:33:46;;;;;;;12.57;4.25;;;;;;;20.74;90.49;99697.34;5050816;28;20044;-68
2023/10/28 07:36:12;;;;;;;16.15;4.07;;;;;;;20.68;91.59;99716.63;5051370;28;20025;-69
2023/10/28 07:38:40;;;;;;;15.98;3.95;;;;;;;20.85;91.88;99753.97;5033423;28;20063;-68
2023/10/28 07:41:06;;;;;;;13.55;3.13;;;;;;;20.59;92.79;99732.53;5051328;28;20021;-69
2023/10/28 07:43:32;;;;;;;11.07;3.50;;;;;;;20.81;92.85;99756.66;5051017;28;20398;-67
2023/10/28 07:45:59;;;;;;;17.38;4.57;;;;;;;21.02;92.90;99755.44;5028301;28;20045;-67
2023/10/28 07:48:26;;;;;;;13.93;4.10;;;;;;;21.22;91.63;99754.22;5027666;28;20041;-67
2023/10/28 07:50:51;;;;;;;22.58;4.07;;;;;;;21.42;91.55;99752.09;5028635;28;20046;-68
2023/10/28 07:53:17;;;;;;;12.10;4.43;;;;;;;21.48;89.91;99761.59;5028362;28;20557;-67
2023/10/28 07:55:43;;;;;;;13.07;4.63;;;;;;;21.54;89.38;99744.88;5028349;28;20057;-68
2023/10/28 07:58:09;;;;;;;15.70;3.85;;;;;;;21.77;88.74;99760.16;5028201;28;20107;-67
2023/10/28 08:00:36;;;;;;;22.80;4.53;;;;;;;21.97;87.67;99763.25;5028601;28;20539;-67
2023/10/28 08:03:05;;;;;;;11.38;3.72;;;;;;;22.12;88.11;99755.94;5028163;28;20120;-66
2023/10/28 08:05:33;;;;;;;16.55;5.18;;;;;;;21.67;86.20;99685.97;5011739;28;20479;-69
2023/10/28 08:07:59;;;;;;;14.18;5.10;;;;;;;22.24;85.79;99755.69;5028594;28;20037;-67
2023/10/28 08:10:25;;;;;;;13.68;4.30;;;;;;;22.06;85.24;99693.00;5028301;28;20095;-68
2023/10/28 08:12:54;;;;;;;15.90;5.40;;;;;;;22.52;84.45;99767.31;5028225;28;20496;-69
2023/10/28 08:15:21;;;;;;;15.20;4.97;;;;;;;22.28;84.99;99769.59;5027738;28;20546;-69
2023/10/28 08:17:47;;;;;;;13.07;4.50;;;;;;;21.84;85.71;99698.72;5046879;28;20502;-68
2023/10/28 08:20:14;;;;;;;21.67;5.90;;;;;;;22.07;86.97;99739.38;5032532;28;20024;-68
2023/10/28 08:22:40;;;;;;;12.38;4.90;;;;;;;22.17;87.06;99763.72;5032960;28;20028;-67
2023/10/28 08:25:06;;;;;;;14.60;4.97;;;;;;;22.07;86.00;99747.28;5050228;28;20155;-68
2023/10/28 08:27:34;;;;;;;17.50;5.72;;;;;;;22.11;86.68;99762.09;5032956;28;20539;-69
2023/10/28 08:30:01;;;;;;;12.23;4.82;;;;;;;22.19;85.61;99782.97;5049837;28;20035;-68
2023/10/28 08:32:27;;;;;;;14.65;5.20;;;;;;;22.16;86.18;99789.16;5031187;28;20033;-68
2023/10/28 08:34:54;;;;;;;18.63;5.32;;;;;;;21.77;86.97;99712.88;5032170;28;20037;-67
2023/10/28 08:37:31;;;;;;;15.93;4.60;;;;;;;22.15;88.69;99782.16;5045654;28;20036;-69
2023/10/28 08:39:57;;;;;;;20.33;5.10;;;;;;;22.00;88.09;99754.44;5030524;28;20483;-72
2023/10/28 08:42:24;;;;;;;16.88;4.72;;;;;;;22.27;88.57;99776.63;5051160;28;20092;-71
2023/10/28 08:44:51;;;;;;;18.65;5.78;;;;;;;22.32;87.17;99779.16;5051206;28;20102;-72
2023/10/28 08:47:24;;;;;;;21.52;5.75;;;;;;;22.27;87.62;99768.75;5042251;28;20108;-72
2023/10/28 08:49:53;;;;;;;13.93;4.90;;;;;;;22.42;87.33;99778.06;5045275;28;20044;-71
2023/10/28 08:52:23;;;;;;;12.88;5.35;;;;;;;22.36;86.17;99772.06;5032734;28;20032;-72
2023/10/28 08:54:49;;;;;;;11.85;4.70;;;;;;;22.45;85.29;99785.91;5049349;28;20036;-69
2023/10/28 08:57:17;;;;;;;13.48;4.88;;;;;;;22.54;83.98;99789.22;5038804;28;20057;-69
2023/10/28 08:59:42;;;;;;;12.07;4.85;;;;;;;22.54;84.15;99781.31;5013935;28;20040;-71
2023/10/28 09:02:12;;;;;;;16.40;6.57;;;;;;;22.22;82.94;99719.78;5049906;28;20040;-69
2023/10/28 09:04:37;;;;;;;16.23;5.95;;;;;;;22.57;83.13;99762.84;5049587;28;20021;-68
2023/10/28 09:07:05;;;;;;;12.23;5.47;;;;;;;22.74;83.71;99786.09;5050064;28;20032;-69
2023/10/28 09:09:31;;;;;;;13.77;5.50;;;;;;;22.81;82.34;99774.53;5049072;28;20033;-70
2023/10/28 09:11:57;;;;;;;12.88;5.18;;;;;;;22.96;81.74;99793.47;5049823;28;20514;-69
2023/10/28 09:14:23;;;;;;;10.10;4.60;;;;;;;23.04;81.00;99784.50;5049619;28;20028;-69
2023/10/28 09:16:49;;;;;;;13.40;5.35;;;;;;;23.07;81.10;99778.28;5049665;28;20044;-68
2023/10/28 09:19:20;;;;;;;11.98;4.60;;;;;;;22.85;79.88;99720.03;5031538;28;20017;-69
2023/10/28 09:21:49;;;;;;;9.70;3.95;;;;;;;23.32;78.90;99783.78;5049389;28;20438;-69
2023/10/28 09:24:16;;;;;;;11.98;4.68;;;;;;;23.43;78.84;99784.34;5048944;28;20017;-69
2023/10/28 09:27:01;;;;;;;12.00;4.63;;;;;;;23.58;78.12;99780.44;4987508;28;20034;-68
2023/10/28 09:29:30;;;;;;;14.55;5.55;;;;;;;23.68;77.43;99769.66;4987798;28;20402;-69
2023/10/28 09:32:08;;;;;;;58.13;31.40;;;;;;;23.88;78.71;99771.72;4987511;28;20034;-70
2023/10/28 09:34:42;;;;;;;22.70;10.40;;;;;;;24.01;78.07;99757.28;4987124;28;20421;-69
2023/10/28 09:37:09;;;;;;;26.52;10.73;;;;;;;24.25;77.65;99761.84;4987587;28;20048;-72
2023/10/28 09:39:36;;;;;;;16.10;5.53;;;;;;;24.36;76.19;99750.06;4987459;28;20023;-69
2023/10/28 09:42:02;;;;;;;17.58;7.40;;;;;;;24.58;74.46;99756.44;4955252;28;20093;-70
2023/10/28 09:44:28;;;;;;;11.23;4.25;;;;;;;24.66;73.05;99743.84;4987786;28;20041;-70
2023/10/28 09:47:05;;;;;;;10.13;3.92;;;;;;;24.62;73.24;99747.50;4987581;28;20035;-69
2023/10/28 09:49:31;;;;;;;9.30;3.63;;;;;;;24.59;73.83;99711.50;4987662;28;20038;-70
2023/10/28 09:52:07;;;;;;;11.27;4.32;;;;;;;24.82;72.63;99733.66;4987579;28;20042;-69
2023/10/28 09:54:35;;;;;;;16.65;4.88;;;;;;;24.97;72.25;99724.34;4968534;28;20061;-70
2023/10/28 09:57:01;;;;;;;12.23;4.82;;;;;;;24.88;72.34;99693.84;4992100;28;20054;-71
2023/10/28 09:59:31;;;;;;;9.77;3.47;;;;;;;25.28;70.55;99725.91;5048816;28;20032;-70
2023/10/28 10:02:01;;;;;;;10.98;3.95;;;;;;;25.40;68.70;99722.00;5050023;28;20040;-70
2023/10/28 10:04:26;;;;;;;;;;;;;;;25.41;67.88;99718.41;5036478;28;20463;-71
2023/10/28 10:06:52;;;;;;;10.73;3.75;;;;;;;25.33;68.39;99703.69;5047766;28;19909;-70
2023/10/28 10:09:18;;;;;;;10.35;3.00;;;;;;;25.51;68.72;99709.25;5034838;28;20035;-71
2023/10/28 10:11:44;;;;;;;7.72;2.88;;;;;;;25.63;66.69;99716.72;5052500;28;20103;-69
2023/10/28 10:14:11;;;;;;;9.00;2.80;;;;;;;25.71;66.71;99702.34;5033551;28;20055;-70
2023/10/28 10:16:52;;;;;;;8.80;3.00;;;;;;;25.73;67.29;99705.78;5052329;28;20474;-69
2023/10/28 10:19:40;;;;;;;12.20;3.67;;;;;;;25.81;68.04;99707.22;5052982;28;20056;-70
2023/10/28 10:22:06;;;;;;;9.23;2.83;;;;;;;25.81;66.12;99703.72;5051859;28;20037;-71
2023/10/28 10:24:34;;;;;;;16.90;6.13;;;;;;;25.98;66.87;99698.66;5052149;28;20036;-70
2023/10/28 10:27:02;;;;;;;9.25;2.60;;;;;;;25.71;63.70;99660.03;5034723;28;20029;-69
2023/10/28 10:29:42;;;;;;;6.82;2.95;;;;;;;26.03;63.97;99708.16;5052746;28;20033;-70
2023/10/28 10:32:17;;;;;;;;;;;;;;;26.11;63.60;99700.84;5052805;28;20031;-71
2023/10/28 10:34:45;;;;;;;6.78;2.67;;;;;;;25.83;63.50;99641.06;5052445;28;19913;-70
2023/10/28 10:37:24;;;;;;;6.63;2.28;;;;;;;26.05;63.10;99709.84;5051551;28;20080;-73
2023/10/28 10:39:49;;;;;;;10.13;2.90;;;;;;;26.08;64.13;99703.59;5052081;28;20038;-70
2023/10/28 10:42:16;;;;;;;8.55;3.50;;;;;;;26.22;64.50;99706.56;5052478;28;20483;-70
2023/10/28 10:44:41;;;;;;;9.63;3.10;;;;;;;26.38;62.94;99705.91;5050376;28;20025;-72
2023/10/28 10:47:27;;;;;;;8.63;2.70;;;;;;;26.45;63.55;99697.66;5051654;28;20028;-71
2023/10/28 10:49:54;;;;;;;9.40;3.53;;;;;;;26.61;64.04;99702.34;5009876;28;20053;-69
2023/10/28 10:52:22;;;;;;;10.93;3.03;;;;;;;26.79;63.84;99690.13;5009627;28;20042;-70
2023/10/28 10:54:48;;;;;;;7.43;2.97;;;;;;;26.66;61.17;99644.75;5009852;28;20065;-69
2023/10/28 10:57:13;;;;;;;7.88;2.72;;;;;;;26.70;62.18;99632.25;5009506;28;20058;-69
2023/10/28 10:59:39;;;;;;;6.97;2.78;;;;;;;27.19;61.88;99682.22;5009934;28;20088;-70
2023/10/28 11:02:04;;;;;;;6.47;2.45;;;;;;;27.13;59.89;99670.97;5009100;28;20034;-70
2023/10/28 11:04:31;;;;;;;8.55;2.70;;;;;;;27.34;59.63;99680.66;5009659;28;20397;-70
2023/10/28 11:06:57;;;;;;;7.95;2.75;;;;;;;27.33;60.72;99665.69;5009446;28;20085;-70
2023/10/28 11:09:23;;;;;;;8.55;3.15;;;;;;;27.47;61.27;99678.38;5006898;28;20527;-73
2023/10/28 11:11:49;;;;;;;9.35;2.78;;;;;;;27.47;59.14;99671.25;4995925;28;20464;-72
2023/10/28 11:14:15;;;;;;;9.15;2.60;;;;;;;27.42;59.78;99644.13;5008641;28;20600;-71
2023/10/28 11:16:41;;;;;;;8.00;3.08;;;;;;;27.68;59.90;99671.22;5008469;28;20053;-71
2023/10/28 11:19:11;;;;;;;13.00;3.15;;;;;;;27.62;59.46;99658.25;5009346;28;20025;-69